Time;durP1;ratioP1;P1;durP2;ratioP2;P2;SDS_P1;SDS_P2;PMS_P1;PMS_P2;Temp;Humidity;BMP_temperature;BMP_pressure;BME280_temperature;BME280_humidity;BME280_pressure;Samples;Min_cycle;Max_cycle;Signal;HPM_P1;HPM_P2
2022/09/07 00:02:26;;;;;;;7.70;7.00;;;;;;;;;;5053429;28;20525;-78
2022/09/07 00:04:53;;;;;;;7.97;7.23;;;;;;;;;;5053148;28;20500;-78
2022/09/07 00:07:21;;;;;;;7.17;6.40;;;;;;;;;;5056345;28;20533;-77
2022/09/07 00:09:50;;;;;;;10.13;7.67;;;;;;;;;;5057122;28;20854;-76
2022/09/07 00:12:17;;;;;;;10.90;7.20;;;;;;;;;;5056630;28;20450;-77
2022/09/07 00:14:44;;;;;;;9.57;7.50;;;;;;;;;;5056777;28;20521;-77
2022/09/07 00:17:13;;;;;;;8.73;7.77;;;;;;;;;;5056786;28;20601;-77
2022/09/07 00:19:40;;;;;;;14.40;7.40;;;;;;;;;;5056590;28;20503;-76
2022/09/07 00:22:08;;;;;;;7.43;6.83;;;;;;;;;;5056849;28;20473;-77
2022/09/07 00:24:35;;;;;;;9.47;7.50;;;;;;;;;;5056630;28;20531;-76
2022/09/07 00:27:02;;;;;;;12.70;7.10;;;;;;;;;;5056398;28;20441;-76
2022/09/07 00:29:30;;;;;;;7.80;7.00;;;;;;;;;;5057230;28;20570;-77
2022/09/07 00:31:57;;;;;;;7.83;7.07;;;;;;;;;;5056589;28;20549;-77
2022/09/07 00:34:26;;;;;;;8.10;7.30;;;;;;;;;;5056720;28;20517;-77
2022/09/07 00:36:53;;;;;;;9.13;7.70;;;;;;;;;;5056744;28;20487;-77
2022/09/07 00:39:20;;;;;;;9.13;7.60;;;;;;;;;;5056448;28;20526;-77
2022/09/07 00:41:47;;;;;;;9.60;8.07;;;;;;;;;;5056498;28;20444;-78
2022/09/07 00:44:39;;;;;;;9.63;8.10;;;;;;;;;;5056394;28;20523;-77
2022/09/07 00:47:07;;;;;;;10.40;8.70;;;;;;;;;;5045585;28;20488;-77
2022/09/07 00:49:36;;;;;;;9.90;7.00;;;;;;;;;;5056004;28;20978;-76
2022/09/07 00:52:04;;;;;;;7.83;5.40;;;;;;;;;;5056177;28;20861;-75
2022/09/07 00:54:33;;;;;;;7.40;6.20;;;;;;;;;;5056494;28;20887;-75
2022/09/07 00:57:01;;;;;;;4.90;4.50;;;;;;;;;;5056158;28;20485;-75
2022/09/07 00:59:31;;;;;;;8.73;4.70;;;;;;;;;;5056097;28;20435;-75
2022/09/07 01:01:59;;;;;;;6.53;4.50;;;;;;;;;;5055973;28;20530;-74
2022/09/07 01:04:26;;;;;;;9.77;6.83;;;;;;;;;;5056415;28;20924;-75
2022/09/07 01:06:55;;;;;;;7.63;4.00;;;;;;;;;;5056389;28;20474;-75
2022/09/07 01:09:24;;;;;;;4.83;3.40;;;;;;;;;;5055958;28;20482;-75
2022/09/07 01:11:52;;;;;;;5.20;4.00;;;;;;;;;;5056037;28;20475;-75
2022/09/07 01:14:20;;;;;;;5.30;4.27;;;;;;;;;;5055318;28;20486;-75
2022/09/07 01:16:54;;;;;;;5.13;3.60;;;;;;;;;;5055431;28;20970;-75
2022/09/07 01:19:48;;;;;;;7.13;3.90;;;;;;;;;;5055155;28;20467;-75
2022/09/07 01:22:26;;;;;;;7.20;3.53;;;;;;;;;;5055347;28;20520;-75
2022/09/07 01:25:00;;;;;;;9.00;3.83;;;;;;;;;;5056438;28;20444;-75
2022/09/07 01:27:34;;;;;;;5.43;3.90;;;;;;;;;;5055751;28;20546;-75
2022/09/07 01:30:04;;;;;;;6.13;3.40;;;;;;;;;;5055890;28;20531;-76
2022/09/07 01:32:36;;;;;;;9.40;3.60;;;;;;;;;;5055142;28;20435;-76
2022/09/07 01:35:07;;;;;;;3.17;2.90;;;;;;;;;;5055783;28;20902;-75
2022/09/07 01:37:37;;;;;;;3.53;3.23;;;;;;;;;;5055724;28;20514;-74
2022/09/07 01:40:08;;;;;;;4.30;3.37;;;;;;;;;;5055012;28;20541;-74
2022/09/07 01:42:44;;;;;;;3.37;3.10;;;;;;;;;;5055477;28;20463;-74
2022/09/07 01:45:13;;;;;;;6.10;3.30;;;;;;;;;;5055834;28;20538;-75
2022/09/07 01:47:44;;;;;;;4.53;3.10;;;;;;;;;;5054760;28;20480;-74
2022/09/07 01:50:14;;;;;;;6.90;3.10;;;;;;;;;;5055735;28;20440;-75
2022/09/07 01:52:42;;;;;;;12.33;4.00;;;;;;;;;;5055256;28;20486;-75
2022/09/07 01:55:13;;;;;;;7.00;4.43;;;;;;;;;;5055027;28;20987;-74
2022/09/07 01:57:44;;;;;;;6.23;3.97;;;;;;;;;;5055093;28;20483;-74
2022/09/07 02:00:13;;;;;;;7.93;4.03;;;;;;;;;;5054749;28;20865;-75
2022/09/07 02:02:42;;;;;;;11.80;4.80;;;;;;;;;;5054517;28;20924;-73
2022/09/07 02:05:11;;;;;;;4.33;3.60;;;;;;;;;;5054751;28;20952;-75
2022/09/07 02:07:43;;;;;;;4.57;3.70;;;;;;;;;;5055223;28;20483;-74
2022/09/07 02:10:13;;;;;;;7.13;4.23;;;;;;;;;;5055166;28;20464;-75
2022/09/07 02:12:43;;;;;;;4.73;3.40;;;;;;;;;;5054698;28;20458;-75
2022/09/07 02:15:14;;;;;;;6.90;3.87;;;;;;;;;;5054202;28;20469;-74
2022/09/07 02:17:43;;;;;;;4.93;3.60;;;;;;;;;;5054395;28;20909;-74
2022/09/07 02:20:12;;;;;;;5.13;4.63;;;;;;;;;;5054163;28;20955;-74
2022/09/07 02:22:41;;;;;;;5.27;4.77;;;;;;;;;;5054509;28;20873;-74
2022/09/07 02:25:09;;;;;;;6.53;4.20;;;;;;;;;;5054390;28;20878;-74
2022/09/07 02:27:40;;;;;;;8.00;4.70;;;;;;;;;;5054391;28;20871;-75
2022/09/07 02:30:08;;;;;;;9.27;3.87;;;;;;;;;;5053931;28;20435;-75
2022/09/07 02:32:37;;;;;;;5.07;4.60;;;;;;;;;;5053982;28;20480;-75
2022/09/07 02:35:04;;;;;;;4.27;3.97;;;;;;;;;;5054100;28;20499;-75
2022/09/07 02:37:32;;;;;;;5.57;4.40;;;;;;;;;;5054325;28;20467;-75
2022/09/07 02:40:00;;;;;;;4.93;4.53;;;;;;;;;;5053790;28;20530;-75
2022/09/07 02:42:35;;;;;;;7.50;4.80;;;;;;;;;;5054214;28;20434;-74
2022/09/07 02:45:04;;;;;;;4.57;4.17;;;;;;;;;;5054262;28;20753;-74
2022/09/07 02:47:36;;;;;;;4.10;3.70;;;;;;;;;;5053704;28;20448;-74
2022/09/07 02:50:22;;;;;;;7.00;4.57;;;;;;;;;;5053916;28;20980;-74
2022/09/07 02:52:56;;;;;;;7.60;5.27;;;;;;;;;;5054004;28;20516;-74
2022/09/07 02:55:27;;;;;;;6.37;5.03;;;;;;;;;;5053502;28;20559;-75
2022/09/07 02:58:01;;;;;;;7.80;4.23;;;;;;;;;;5053631;28;20499;-74
2022/09/07 03:00:30;;;;;;;7.10;4.20;;;;;;;;;;5053854;28;20430;-74
2022/09/07 03:03:00;;;;;;;6.20;5.10;;;;;;;;;;5053413;28;20469;-74
2022/09/07 03:05:33;;;;;;;4.83;4.27;;;;;;;;;;5053728;28;20501;-74
2022/09/07 03:08:03;;;;;;;8.43;4.50;;;;;;;;;;5053875;28;20881;-74
2022/09/07 03:10:30;;;;;;;5.07;4.50;;;;;;;;;;5053595;28;20447;-74
2022/09/07 03:12:57;;;;;;;6.83;4.53;;;;;;;;;;5053606;28;20452;-74
2022/09/07 03:15:26;;;;;;;7.20;4.10;;;;;;;;;;5053121;28;20531;-74
2022/09/07 03:17:54;;;;;;;5.07;4.57;;;;;;;;;;5053308;28;20431;-74
2022/09/07 03:20:22;;;;;;;7.10;5.10;;;;;;;;;;5053643;28;20446;-74
2022/09/07 03:22:51;;;;;;;4.80;4.40;;;;;;;;;;5053179;28;20501;-75
2022/09/07 03:25:19;;;;;;;6.57;4.07;;;;;;;;;;5053396;28;20483;-74
2022/09/07 03:27:46;;;;;;;6.03;4.80;;;;;;;;;;5053477;28;20482;-74
2022/09/07 03:30:14;;;;;;;6.73;4.70;;;;;;;;;;5053021;28;20469;-75
2022/09/07 03:32:41;;;;;;;9.50;4.20;;;;;;;;;;5052912;28;20478;-73
2022/09/07 03:35:09;;;;;;;5.17;4.60;;;;;;;;;;5052861;28;20513;-74
2022/09/07 03:37:36;;;;;;;10.10;4.03;;;;;;;;;;5052941;28;20522;-74
2022/09/07 03:40:06;;;;;;;4.73;4.00;;;;;;;;;;5052963;28;20879;-74
2022/09/07 03:42:34;;;;;;;4.37;3.97;;;;;;;;;;5053089;28;20987;-74
2022/09/07 03:45:01;;;;;;;5.37;4.87;;;;;;;;;;5053205;28;20528;-74
2022/09/07 03:47:29;;;;;;;5.40;4.60;;;;;;;;;;5052900;28;20475;-74
2022/09/07 03:49:56;;;;;;;5.80;5.20;;;;;;;;;;5053136;28;20857;-75
2022/09/07 03:52:23;;;;;;;4.80;4.17;;;;;;;;;;5053613;28;20532;-74
2022/09/07 03:54:50;;;;;;;6.27;4.70;;;;;;;;;;5053577;28;20527;-74
2022/09/07 03:57:19;;;;;;;6.80;5.10;;;;;;;;;;5053051;28;20539;-74
2022/09/07 03:59:48;;;;;;;5.80;4.37;;;;;;;;;;5053399;28;20439;-74
2022/09/07 04:02:16;;;;;;;6.07;5.03;;;;;;;;;;5053153;28;20571;-74
2022/09/07 04:04:44;;;;;;;6.30;5.53;;;;;;;;;;5053319;28;20486;-73
2022/09/07 04:07:12;;;;;;;9.87;4.80;;;;;;;;;;5053198;28;20445;-74
2022/09/07 04:09:39;;;;;;;5.60;4.67;;;;;;;;;;5052772;28;20926;-76
2022/09/07 04:12:07;;;;;;;5.13;4.63;;;;;;;;;;5052570;28;20533;-75
2022/09/07 04:14:35;;;;;;;7.63;5.70;;;;;;;;;;5053109;28;20555;-77
2022/09/07 04:17:03;;;;;;;7.70;5.80;;;;;;;;;;5053021;28;20528;-76
2022/09/07 04:19:30;;;;;;;5.17;4.63;;;;;;;;;;5053358;28;20434;-76
2022/09/07 04:21:58;;;;;;;6.70;4.70;;;;;;;;;;5052915;28;20444;-76
2022/09/07 04:24:25;;;;;;;5.90;5.37;;;;;;;;;;5052703;28;20493;-76
2022/09/07 04:26:53;;;;;;;8.30;5.73;;;;;;;;;;5070643;28;20535;-74
2022/09/07 04:29:20;;;;;;;6.20;5.60;;;;;;;;;;5071967;28;20441;-74
2022/09/07 04:31:49;;;;;;;6.17;5.30;;;;;;;;;;5071918;28;21019;-74
2022/09/07 04:34:16;;;;;;;6.43;5.83;;;;;;;;;;5072204;28;20869;-74
2022/09/07 04:36:44;;;;;;;7.03;5.57;;;;;;;;;;5069409;28;20508;-74
2022/09/07 04:39:12;;;;;;;7.40;5.53;;;;;;;;;;5070752;28;20447;-73
2022/09/07 04:41:39;;;;;;;11.70;7.50;;;;;;;;;;5071311;28;20442;-74
2022/09/07 04:44:06;;;;;;;6.80;5.53;;;;;;;;;;5071325;28;20440;-73
2022/09/07 04:46:35;;;;;;;8.53;6.00;;;;;;;;;;5072046;28;20500;-73
2022/09/07 04:49:04;;;;;;;6.50;6.00;;;;;;;;;;5071476;28;20532;-73
2022/09/07 04:51:32;;;;;;;8.77;5.93;;;;;;;;;;5071669;28;20514;-75
2022/09/07 04:54:01;;;;;;;6.03;5.53;;;;;;;;;;5074220;28;20485;-74
2022/09/07 04:56:28;;;;;;;9.17;8.30;;;;;;;;;;5075153;28;20475;-74
2022/09/07 04:58:55;;;;;;;8.03;6.70;;;;;;;;;;5075355;28;20497;-74
2022/09/07 05:01:25;;;;;;;8.60;6.53;;;;;;;;;;5074879;28;20967;-74
2022/09/07 05:03:52;;;;;;;7.90;7.10;;;;;;;;;;5075056;28;20457;-73
2022/09/07 05:06:22;;;;;;;7.63;6.53;;;;;;;;;;5074782;28;20465;-73
2022/09/07 05:08:50;;;;;;;8.43;5.80;;;;;;;;;;5074637;28;20468;-73
2022/09/07 05:11:18;;;;;;;8.00;6.37;;;;;;;;;;5074838;28;20434;-74
2022/09/07 05:13:45;;;;;;;6.87;6.27;;;;;;;;;;5075339;28;20439;-74
2022/09/07 05:16:14;;;;;;;8.27;7.17;;;;;;;;;;5074508;28;20484;-73
2022/09/07 05:18:41;;;;;;;7.70;5.90;;;;;;;;;;5075043;28;20473;-73
2022/09/07 05:21:09;;;;;;;6.83;6.03;;;;;;;;;;5074583;28;20485;-73
2022/09/07 05:23:38;;;;;;;6.67;5.57;;;;;;;;;;5074745;28;20563;-74
2022/09/07 05:26:05;;;;;;;7.27;5.57;;;;;;;;;;5074348;28;20953;-73
2022/09/07 05:28:33;;;;;;;6.53;5.13;;;;;;;;;;5074772;28;20541;-73
2022/09/07 05:31:07;;;;;;;7.37;5.73;;;;;;;;;;5074455;28;20445;-74
2022/09/07 05:33:34;;;;;;;6.97;5.87;;;;;;;;;;5074509;28;20444;-74
2022/09/07 05:36:02;;;;;;;5.50;5.00;;;;;;;;;;5074662;28;20569;-74
2022/09/07 05:38:29;;;;;;;6.53;5.03;;;;;;;;;;5074771;28;20442;-75
2022/09/07 05:40:58;;;;;;;7.60;6.80;;;;;;;;;;5074523;28;20533;-74
2022/09/07 05:43:25;;;;;;;6.50;5.90;;;;;;;;;;5074007;28;20605;-73
2022/09/07 05:45:55;;;;;;;6.60;6.00;;;;;;;;;;5073761;28;20452;-73
2022/09/07 05:48:22;;;;;;;6.77;5.90;;;;;;;;;;5074020;28;20935;-74
2022/09/07 05:50:52;;;;;;;7.87;7.10;;;;;;;;;;5074456;28;20872;-73
2022/09/07 05:53:20;;;;;;;10.50;6.60;;;;;;;;;;5074375;28;20480;-74
2022/09/07 05:55:48;;;;;;;6.50;6.00;;;;;;;;;;5074770;28;20537;-75
2022/09/07 05:58:17;;;;;;;8.67;6.63;;;;;;;;;;5074583;28;20459;-75
2022/09/07 06:00:45;;;;;;;7.27;6.57;;;;;;;;;;5074613;28;20901;-76
2022/09/07 06:03:12;;;;;;;8.87;8.10;;;;;;;;;;5074037;28;20448;-74
2022/09/07 06:05:39;;;;;;;7.77;6.67;;;;;;;;;;5075061;28;20472;-75
2022/09/07 06:08:06;;;;;;;7.00;6.30;;;;;;;;;;5074007;28;20495;-74
2022/09/07 06:10:34;;;;;;;9.10;7.00;;;;;;;;;;5073911;28;20469;-75
2022/09/07 06:13:02;;;;;;;7.10;6.13;;;;;;;;;;5073822;28;20532;-76
2022/09/07 06:15:32;;;;;;;7.87;6.83;;;;;;;;;;5074138;28;20521;-75
2022/09/07 06:17:59;;;;;;;9.83;7.53;;;;;;;;;;5074264;28;20479;-75
2022/09/07 06:20:27;;;;;;;10.37;7.20;;;;;;;;;;5074153;28;20499;-74
2022/09/07 06:22:54;;;;;;;11.07;7.40;;;;;;;;;;5074402;28;20483;-75
2022/09/07 06:25:22;;;;;;;8.47;7.30;;;;;;;;;;5074028;28;20520;-74
2022/09/07 06:27:50;;;;;;;8.20;7.40;;;;;;;;;;5073826;28;20530;-75
2022/09/07 06:30:18;;;;;;;8.40;7.03;;;;;;;;;;5073429;28;20453;-75
2022/09/07 06:32:46;;;;;;;8.20;7.40;;;;;;;;;;5074097;28;20470;-75
2022/09/07 06:35:14;;;;;;;7.50;6.90;;;;;;;;;;5074594;28;20529;-75
2022/09/07 06:37:42;;;;;;;9.00;6.73;;;;;;;;;;5073893;28;20563;-75
2022/09/07 06:40:10;;;;;;;8.63;7.53;;;;;;;;;;5074415;28;20446;-75
2022/09/07 06:42:37;;;;;;;8.07;7.30;;;;;;;;;;5073659;28;20445;-75
2022/09/07 06:45:05;;;;;;;11.60;6.80;;;;;;;;;;5073735;28;20454;-75
2022/09/07 06:47:32;;;;;;;8.63;7.47;;;;;;;;;;5073462;28;20509;-73
2022/09/07 06:50:01;;;;;;;6.80;6.20;;;;;;;;;;5073738;28;20478;-74
2022/09/07 06:52:29;;;;;;;11.40;6.00;;;;;;;;;;5073688;28;20480;-76
2022/09/07 06:54:56;;;;;;;8.40;7.13;;;;;;;;;;5073631;28;20526;-76
2022/09/07 06:57:23;;;;;;;10.87;5.93;;;;;;;;;;5073533;28;20662;-75
2022/09/07 06:59:50;;;;;;;7.40;5.57;;;;;;;;;;5073557;28;20447;-74
2022/09/07 07:02:18;;;;;;;6.23;5.73;;;;;;;;;;5073457;28;20526;-75
2022/09/07 07:04:48;;;;;;;8.93;5.80;;;;;;;;;;5073221;28;20473;-73
2022/09/07 07:07:17;;;;;;;12.80;6.63;;;;;;;;;;5072850;28;20496;-76
2022/09/07 07:09:44;;;;;;;5.87;5.30;;;;;;;;;;5073150;28;20446;-77
2022/09/07 07:12:11;;;;;;;6.07;5.47;;;;;;;;;;5073481;28;20530;-77
2022/09/07 07:14:39;;;;;;;9.53;6.13;;;;;;;;;;5073109;28;20521;-77
2022/09/07 07:17:06;;;;;;;7.17;5.50;;;;;;;;;;5072689;28;20606;-77
2022/09/07 07:19:33;;;;;;;7.30;4.77;;;;;;;;;;5073341;28;20541;-77
2022/09/07 07:22:01;;;;;;;22.00;4.80;;;;;;;;;;5072860;28;20938;-77
2022/09/07 07:24:29;;;;;;;7.47;4.60;;;;;;;;;;5072985;28;20531;-77
2022/09/07 07:26:56;;;;;;;6.53;5.33;;;;;;;;;;5073176;28;20874;-76
2022/09/07 07:29:24;;;;;;;5.93;5.40;;;;;;;;;;5072819;28;20962;-78
2022/09/07 07:31:51;;;;;;;7.03;5.63;;;;;;;;;;5073022;28;20950;-76
2022/09/07 07:34:18;;;;;;;6.63;5.83;;;;;;;;;;5073339;28;20918;-75
2022/09/07 07:36:45;;;;;;;8.13;7.07;;;;;;;;;;5073216;28;20834;-75
2022/09/07 07:39:13;;;;;;;8.33;6.47;;;;;;;;;;5072866;28;20483;-74
2022/09/07 07:41:42;;;;;;;12.40;8.27;;;;;;;;;;5072872;28;20530;-75
2022/09/07 07:44:10;;;;;;;8.33;7.17;;;;;;;;;;5072862;28;20446;-73
2022/09/07 07:46:37;;;;;;;10.57;8.23;;;;;;;;;;5072867;28;20490;-72
2022/09/07 07:49:04;;;;;;;11.50;9.23;;;;;;;;;;5072781;28;20618;-72
2022/09/07 07:51:31;;;;;;;12.83;8.30;;;;;;;;;;5073324;28;20858;-73
2022/09/07 07:53:59;;;;;;;9.77;8.10;;;;;;;;;;5069571;28;20544;-72
2022/09/07 07:56:27;;;;;;;12.60;9.97;;;;;;;;;;5067672;28;20447;-72
2022/09/07 07:58:56;;;;;;;10.87;9.70;;;;;;;;;;5072396;28;20466;-72
2022/09/07 08:01:23;;;;;;;15.03;11.83;;;;;;;;;;5072594;28;20446;-72
2022/09/07 08:03:50;;;;;;;13.87;11.83;;;;;;;;;;5072515;28;20525;-72
2022/09/07 08:06:19;;;;;;;13.30;10.97;;;;;;;;;;5072106;28;20454;-72
2022/09/07 08:08:46;;;;;;;16.00;12.50;;;;;;;;;;5072423;28;20538;-72
2022/09/07 08:11:18;;;;;;;15.17;12.90;;;;;;;;;;5072435;28;20447;-72
2022/09/07 08:13:48;;;;;;;14.33;12.37;;;;;;;;;;5072111;28;20870;-72
2022/09/07 08:16:17;;;;;;;15.23;13.63;;;;;;;;;;5072447;28;20839;-72
2022/09/07 08:18:44;;;;;;;18.20;13.97;;;;;;;;;;5072451;28;20531;-72
2022/09/07 08:21:12;;;;;;;20.03;15.03;;;;;;;;;;5072948;28;20479;-72
2022/09/07 08:23:40;;;;;;;20.13;14.57;;;;;;;;;;5072131;28;20932;-72
2022/09/07 08:26:08;;;;;;;18.77;15.57;;;;;;;;;;5072771;28;20442;-73
2022/09/07 08:28:36;;;;;;;17.40;15.60;;;;;;;;;;5075917;28;20461;-72
2022/09/07 08:31:05;;;;;;;20.77;17.07;;;;;;;;;;5075868;28;20443;-73
2022/09/07 08:33:36;;;;;;;17.90;14.80;;;;;;;;;;5075741;28;20443;-72
2022/09/07 08:36:04;;;;;;;18.13;16.43;;;;;;;;;;5076363;28;20437;-72
2022/09/07 08:38:32;;;;;;;20.47;18.37;;;;;;;;;;5075577;28;20570;-72
2022/09/07 08:40:59;;;;;;;21.17;19.00;;;;;;;;;;5076468;28;20451;-72
2022/09/07 08:43:41;;;;;;;21.47;19.20;;;;;;;;;;5075883;28;20554;-72
2022/09/07 08:46:13;;;;;;;19.30;17.43;;;;;;;;;;5075965;28;20496;-72
2022/09/07 08:48:42;;;;;;;24.13;17.43;;;;;;;;;;5076335;28;20524;-74
2022/09/07 08:51:12;;;;;;;23.10;20.27;;;;;;;;;;5075861;28;20450;-72
2022/09/07 08:53:44;;;;;;;18.07;16.30;;;;;;;;;;5075485;28;20436;-72
2022/09/07 08:56:14;;;;;;;21.40;19.50;;;;;;;;;;5077131;28;20418;-72
2022/09/07 08:58:44;;;;;;;23.43;20.30;;;;;;;;;;5075632;28;20468;-72
2022/09/07 09:01:12;;;;;;;24.97;22.37;;;;;;;;;;5075822;28;20509;-72
2022/09/07 09:03:41;;;;;;;28.10;25.20;;;;;;;;;;5075748;28;20562;-72
2022/09/07 09:06:14;;;;;;;25.73;22.80;;;;;;;;;;5076134;28;20432;-73
2022/09/07 09:08:47;;;;;;;24.40;21.70;;;;;;;;;;5076792;28;20519;-72
2022/09/07 09:11:17;;;;;;;27.97;23.37;;;;;;;;;;5075751;28;20523;-72
2022/09/07 09:13:48;;;;;;;25.60;23.10;;;;;;;;;;5075549;28;20429;-72
2022/09/07 09:16:18;;;;;;;24.97;22.40;;;;;;;;;;5075317;28;20492;-73
2022/09/07 09:19:00;;;;;;;28.13;25.03;;;;;;;;;;5075731;28;20485;-72
2022/09/07 09:21:27;;;;;;;25.70;22.80;;;;;;;;;;5075498;28;20436;-72
2022/09/07 09:24:00;;;;;;;26.63;23.73;;;;;;;;;;5075726;28;20539;-72
2022/09/07 09:26:28;;;;;;;25.50;23.10;;;;;;;;;;5076057;28;20433;-72
2022/09/07 09:28:56;;;;;;;27.77;22.70;;;;;;;;;;5076084;28;20467;-72
2022/09/07 09:31:25;;;;;;;28.13;23.57;;;;;;;;;;5075333;28;20448;-72
2022/09/07 09:34:13;;;;;;;27.63;22.97;;;;;;;;;;5075475;28;20843;-72
2022/09/07 09:36:43;;;;;;;23.37;20.70;;;;;;;;;;5072116;28;20457;-73
2022/09/07 09:39:38;;;;;;;24.97;22.47;;;;;;;;;;5074779;28;20420;-71
2022/09/07 09:42:15;;;;;;;26.63;24.03;;;;;;;;;;5062680;28;20496;-73
2022/09/07 09:44:43;;;;;;;26.67;23.80;;;;;;;;;;5089254;28;20447;-74
2022/09/07 09:47:22;;;;;;;25.77;23.27;;;;;;;;;;5095149;28;20534;-75
2022/09/07 09:49:52;;;;;;;22.47;20.33;;;;;;;;;;5095210;28;20580;-73
2022/09/07 09:52:21;;;;;;;23.47;20.97;;;;;;;;;;5093706;28;20442;-79
2022/09/07 09:54:51;;;;;;;24.20;21.87;;;;;;;;;;5074498;28;20540;-76
2022/09/07 09:57:18;;;;;;;25.17;22.63;;;;;;;;;;5242822;22;20453;-66
2022/09/07 10:00:00;;;;;;;26.70;23.43;;;;;;;;;;5038718;28;20458;-64
2022/09/07 10:02:29;;;;;;;25.40;22.83;;;;;;;;;;5029576;28;20450;-64
2022/09/07 10:04:56;;;;;;;28.33;25.57;;;;;;;;;;5014539;28;20943;-63
2022/09/07 10:07:26;;;;;;;26.93;24.33;;;;;;;;;;5022639;28;20456;-63
2022/09/07 10:09:54;;;;;;;27.30;24.60;;;;;;;;;;5034255;28;20518;-66
2022/09/07 10:12:32;;;;;;;25.10;22.70;;;;;;;;;;5034708;28;20449;-65
2022/09/07 10:14:59;;;;;;;23.33;21.10;;;;;;;;;;5034406;28;20426;-65
2022/09/07 10:17:29;;;;;;;24.83;22.40;;;;;;;;;;5034237;28;20485;-66
2022/09/07 10:20:00;;;;;;;25.50;22.83;;;;;;;;;;5034060;28;20536;-64
2022/09/07 10:22:33;;;;;;;25.63;23.13;;;;;;;;;;5034632;28;20427;-64
2022/09/07 10:25:01;;;;;;;20.23;18.33;;;;;;;;;;5034324;28;20509;-64
2022/09/07 10:27:30;;;;;;;18.57;16.87;;;;;;;;;;5034518;28;20504;-65
2022/09/07 10:29:57;;;;;;;19.63;17.53;;;;;;;;;;5052721;28;20540;-64
2022/09/07 10:32:29;;;;;;;22.10;18.57;;;;;;;;;;5053908;28;20934;-64
2022/09/07 10:35:01;;;;;;;22.70;17.97;;;;;;;;;;5054480;28;20509;-64
2022/09/07 10:37:34;;;;;;;21.50;18.23;;;;;;;;;;5054084;28;20476;-64
2022/09/07 10:40:06;;;;;;;17.83;16.13;;;;;;;;;;5053495;28;20455;-64
2022/09/07 10:42:34;;;;;;;19.13;15.77;;;;;;;;;;5053593;28;20437;-64
2022/09/07 10:45:05;;;;;;;16.93;15.33;;;;;;;;;;5053186;28;20445;-64
2022/09/07 10:47:41;;;;;;;19.63;17.40;;;;;;;;;;5053987;28;20446;-64
2022/09/07 10:50:09;;;;;;;17.73;15.97;;;;;;;;;;5053738;28;20430;-64
2022/09/07 10:52:43;;;;;;;18.00;16.30;;;;;;;;;;5053548;28;20448;-64
2022/09/07 10:55:14;;;;;;;18.70;16.97;;;;;;;;;;5053699;28;20554;-64
2022/09/07 10:57:46;;;;;;;18.17;16.27;;;;;;;;;;5053779;28;21004;-64
2022/09/07 11:00:15;;;;;;;17.03;14.70;;;;;;;;;;5053359;28;20430;-64
2022/09/07 11:03:00;;;;;;;15.67;13.73;;;;;;;;;;5053345;28;20444;-65
2022/09/07 11:05:29;;;;;;;17.27;14.00;;;;;;;;;;5053826;28;20437;-65
2022/09/07 11:08:05;;;;;;;12.73;11.63;;;;;;;;;;5053866;28;20452;-64
2022/09/07 11:10:38;;;;;;;21.70;13.03;;;;;;;;;;5053316;28;20446;-65
2022/09/07 11:13:06;;;;;;;12.40;11.20;;;;;;;;;;5054068;28;20429;-65
2022/09/07 11:15:36;;;;;;;12.43;11.33;;;;;;;;;;5053293;28;20443;-65
2022/09/07 11:18:06;;;;;;;16.00;13.03;;;;;;;;;;5054197;28;20818;-65
2022/09/07 11:20:37;;;;;;;13.43;12.23;;;;;;;;;;5053619;28;20425;-65
2022/09/07 11:23:09;;;;;;;13.80;12.40;;;;;;;;;;5053254;28;20426;-65
2022/09/07 11:25:39;;;;;;;14.83;11.00;;;;;;;;;;5053582;28;20439;-65
2022/09/07 11:28:09;;;;;;;11.50;10.40;;;;;;;;;;5053877;28;20457;-65
2022/09/07 11:30:37;;;;;;;10.60;9.60;;;;;;;;;;5053388;28;20456;-65
2022/09/07 11:33:11;;;;;;;10.40;9.60;;;;;;;;;;5053335;28;20442;-64
2022/09/07 11:35:42;;;;;;;9.60;8.60;;;;;;;;;;5052997;28;20465;-65
2022/09/07 11:38:14;;;;;;;10.50;9.50;;;;;;;;;;5053259;28;20475;-64
2022/09/07 11:40:44;;;;;;;10.13;9.20;;;;;;;;;;5053096;28;20438;-65
2022/09/07 11:43:15;;;;;;;12.70;9.13;;;;;;;;;;5053567;28;20434;-64
2022/09/07 11:45:45;;;;;;;9.73;8.73;;;;;;;;;;5052727;28;20434;-65
2022/09/07 11:48:16;;;;;;;11.20;9.83;;;;;;;;;;5053081;28;20512;-65
2022/09/07 11:50:45;;;;;;;12.67;8.73;;;;;;;;;;5053171;28;20434;-66
2022/09/07 11:53:16;;;;;;;8.50;7.70;;;;;;;;;;5052743;28;20446;-65
2022/09/07 11:55:45;;;;;;;8.27;7.47;;;;;;;;;;5043556;28;20447;-65
2022/09/07 11:58:20;;;;;;;8.03;7.33;;;;;;;;;;5032760;28;20502;-64
2022/09/07 12:00:54;;;;;;;11.80;6.97;;;;;;;;;;5033317;28;20439;-65
2022/09/07 12:03:39;;;;;;;7.07;6.37;;;;;;;;;;5036506;28;20451;-64
2022/09/07 12:06:17;;;;;;;8.23;7.00;;;;;;;;;;5036879;28;20464;-64
2022/09/07 12:08:55;;;;;;;8.30;7.60;;;;;;;;;;5037369;28;20450;-64
2022/09/07 12:11:29;;;;;;;9.63;7.30;;;;;;;;;;5036952;28;20427;-64
2022/09/07 12:14:10;;;;;;;16.73;9.73;;;;;;;;;;5037235;28;20438;-64
2022/09/07 12:16:41;;;;;;;14.03;10.37;;;;;;;;;;5036721;28;20523;-64
2022/09/07 12:19:13;;;;;;;10.83;9.77;;;;;;;;;;5036777;28;20470;-64
2022/09/07 12:21:42;;;;;;;10.97;9.90;;;;;;;;;;5037178;28;20434;-64
2022/09/07 12:24:24;;;;;;;16.07;10.10;;;;;;;;;;5036804;28;20446;-65
2022/09/07 12:26:52;;;;;;;11.20;10.30;;;;;;;;;;5034363;28;20477;-64
2022/09/07 12:29:22;;;;;;;10.57;9.60;;;;;;;;;;5033116;28;20802;-66
2022/09/07 12:31:50;;;;;;;13.20;10.50;;;;;;;;;;5017036;28;20448;-64
2022/09/07 12:34:36;;;;;;;11.73;10.73;;;;;;;;;;5017046;28;20446;-64
2022/09/07 12:37:04;;;;;;;11.30;10.40;;;;;;;;;;5017427;28;20454;-64
2022/09/07 12:39:33;;;;;;;12.30;11.07;;;;;;;;;;5017041;28;20533;-64
2022/09/07 12:42:22;;;;;;;12.23;11.03;;;;;;;;;;5016910;28;20629;-64
2022/09/07 12:45:09;;;;;;;11.43;10.23;;;;;;;;;;5016843;28;20912;-64
2022/09/07 12:47:37;;;;;;;13.23;11.93;;;;;;;;;;5016376;28;20951;-64
2022/09/07 12:50:16;;;;;;;13.87;12.57;;;;;;;;;;5016664;28;20456;-64
2022/09/07 12:52:48;;;;;;;13.23;12.13;;;;;;;;;;5016755;28;20865;-64
2022/09/07 12:55:33;;;;;;;12.23;11.03;;;;;;;;;;5016351;28;20451;-64
2022/09/07 12:58:10;;;;;;;13.97;12.60;;;;;;;;;;5016297;28;20479;-65
2022/09/07 13:00:45;;;;;;;13.23;11.93;;;;;;;;;;5016367;28;20441;-64
2022/09/07 13:03:30;;;;;;;14.40;13.03;;;;;;;;;;5016587;28;20861;-64
2022/09/07 13:06:03;;;;;;;14.90;13.50;;;;;;;;;;5016638;28;20443;-64
2022/09/07 13:08:47;;;;;;;15.43;13.83;;;;;;;;;;5016434;28;20431;-64
2022/09/07 13:11:16;;;;;;;14.80;13.50;;;;;;;;;;5016081;28;20436;-64
2022/09/07 13:13:55;;;;;;;16.40;14.50;;;;;;;;;;5014734;28;20455;-64
2022/09/07 13:16:27;;;;;;;14.37;13.00;;;;;;;;;;5016309;28;20490;-64
2022/09/07 13:18:54;;;;;;;15.03;13.70;;;;;;;;;;5016076;28;20494;-64
2022/09/07 13:21:32;;;;;;;14.53;13.33;;;;;;;;;;5016149;28;20458;-64
2022/09/07 13:24:15;;;;;;;14.17;13.07;;;;;;;;;;5015903;28;20569;-64
2022/09/07 13:26:53;;;;;;;13.57;12.37;;;;;;;;;;4994252;28;20543;-64
2022/09/07 13:29:23;;;;;;;15.47;14.07;;;;;;;;;;5015915;28;20449;-65
2022/09/07 13:31:58;;;;;;;19.33;12.53;;;;;;;;;;5041508;28;20941;-64
2022/09/07 13:34:44;;;;;;;12.80;11.47;;;;;;;;;;5055304;28;20442;-64
2022/09/07 13:37:16;;;;;;;14.13;12.80;;;;;;;;;;5055560;28;20829;-64
2022/09/07 13:39:45;;;;;;;14.67;12.70;;;;;;;;;;5055835;28;20476;-64
2022/09/07 13:42:15;;;;;;;14.20;12.90;;;;;;;;;;5055853;28;20458;-65
2022/09/07 13:44:51;;;;;;;14.53;13.07;;;;;;;;;;5055823;28;20440;-64
2022/09/07 13:47:21;;;;;;;13.30;11.73;;;;;;;;;;5055301;28;20436;-64
2022/09/07 13:49:54;;;;;;;16.00;13.23;;;;;;;;;;5055287;28;20800;-64
2022/09/07 13:52:24;;;;;;;12.40;11.33;;;;;;;;;;5055579;28;20791;-65
2022/09/07 13:54:57;;;;;;;11.77;10.00;;;;;;;;;;5055462;28;20878;-64
2022/09/07 13:57:28;;;;;;;11.67;10.57;;;;;;;;;;5055363;28;20802;-65
2022/09/07 13:59:56;;;;;;;10.43;9.47;;;;;;;;;;5054695;28;21007;-64
2022/09/07 14:02:26;;;;;;;13.07;11.97;;;;;;;;;;5054656;28;20817;-65
2022/09/07 14:04:54;;;;;;;13.53;12.43;;;;;;;;;;5054942;28;20440;-64
2022/09/07 14:07:22;;;;;;;13.27;12.10;;;;;;;;;;5054955;28;20445;-64
2022/09/07 14:09:50;;;;;;;13.97;12.50;;;;;;;;;;5054876;28;20449;-64
2022/09/07 14:12:19;;;;;;;14.13;10.70;;;;;;;;;;5054590;28;20921;-64
2022/09/07 14:14:46;;;;;;;12.80;11.50;;;;;;;;;;5054786;28;20949;-64
2022/09/07 14:17:15;;;;;;;13.30;12.10;;;;;;;;;;5054437;28;20452;-64
2022/09/07 14:19:45;;;;;;;14.10;12.37;;;;;;;;;;5054580;28;20587;-64
2022/09/07 14:22:15;;;;;;;13.47;11.60;;;;;;;;;;5054600;28;20441;-64
2022/09/07 14:24:44;;;;;;;14.10;12.70;;;;;;;;;;5054207;28;20438;-64
2022/09/07 14:30:08;;;;;;;11.40;10.10;;;;;;;;;;5304843;22;20412;31
2022/09/07 14:32:37;;;;;;;12.03;9.90;;;;;;;;;;5020612;28;20466;-63
2022/09/07 14:35:05;;;;;;;12.03;10.83;;;;;;;;;;5013900;28;20946;-64
2022/09/07 14:37:32;;;;;;;14.87;11.37;;;;;;;;;;5014030;28;20535;-64
2022/09/07 14:39:59;;;;;;;16.63;12.60;;;;;;;;;;5014302;28;20937;-65
2022/09/07 14:42:26;;;;;;;10.50;9.60;;;;;;;;;;5014108;28;20457;-65
2022/09/07 14:45:08;;;;;;;13.47;12.07;;;;;;;;;;5014191;28;20449;-64
2022/09/07 14:47:39;;;;;;;13.60;12.33;;;;;;;;;;5014273;28;20445;-64
2022/09/07 14:50:07;;;;;;;12.13;11.00;;;;;;;;;;5014762;28;20804;-64
2022/09/07 14:52:36;;;;;;;14.93;9.80;;;;;;;;;;5014274;28;20525;-64